Depesze METAR lotnisk w Polsce

METAR – format kodowanego raportu o pogodzie używany w meteorologii lotniczej i prognozie pogody. METAR jest akronimem od ang. Meteorological Aerodrome Report. Typowy METAR zawiera informację o temperaturze, ciśnieniu, temperaturze punktu rosy, sile i kierunku wiatru, opadzie, pokrywie chmur, wysokości podstawy chmur, widzialności, lecz może zawierać też inne informacje (np. stan dróg startowych).

Warszawa-Okęcie (EPWA)

METAR = EPWA 180130Z 14006KT CAVOK 08/06 Q1016 NOSIG

STACJA......... EPWA - Warszawa-Okęcie (WAW)
POMIAR......... Fri Oct 18, 03:30 CEST
WIATR.......... południowo wschodni (SE) z prędkością 11 km/h
WIDZIALNOŚĆ.... powyżej 10 kilometrów
CHMURY......... bezchmurne niebo
TEMPERATURA.... 8°C
T.PUNKTU ROSY.. 6°C
WILGOTNOŚĆ..... 87%
T.ODCZUWALNA... 6°C
CIŚNIENIE...... 1016 hPa
CIŚN.BEZWZGL... 1003 hPa
PROGNOZA....... bez nagłych zmian w ciągu 2h

Sprawdź też: Prognoza pogody Warszawa

Warszawa-Modlin (EPMO)

METAR = EPMO 180130Z 16004KT CAVOK 09/07 Q1016 =

STACJA......... EPMO - Warszawa-Modlin (WMI)
POMIAR......... Fri Oct 18, 03:30 CEST
WIATR.......... południowo południowo-wschodni (SSE) z prędkością 7 km/h
WIDZIALNOŚĆ.... powyżej 10 kilometrów
CHMURY......... bezchmurne niebo
TEMPERATURA.... 9°C
T.PUNKTU ROSY.. 7°C
WILGOTNOŚĆ..... 87%
T.ODCZUWALNA... 8°C
CIŚNIENIE...... 1016 hPa
CIŚN.BEZWZGL... 1003 hPa

Sprawdź też: Prognoza pogody Nowy Dwór Mazowiecki

Kraków-Balice (EPKK)

METAR = EPKK 180130Z VRB01KT CAVOK 07/06 Q1017

STACJA......... EPKK - Kraków-Balice (KRK)
POMIAR......... Fri Oct 18, 03:30 CEST
WIATR.......... zmienny z prędkością 2 km/h
WIDZIALNOŚĆ.... powyżej 10 kilometrów
CHMURY......... bezchmurne niebo
TEMPERATURA.... 7°C
T.PUNKTU ROSY.. 6°C
WILGOTNOŚĆ..... 93%
CIŚNIENIE...... 1017 hPa
CIŚN.BEZWZGL... 988 hPa

Sprawdź też: Prognoza pogody Kraków

Łódź-Lublinek (EPLL)

METAR = EPLL 180130Z 08002KT 9999 MIFG NSC 08/07 Q1015

STACJA......... EPLL - Łódź-Lublinek (LCJ)
POMIAR......... Fri Oct 18, 03:30 CEST
WIATR.......... wschodni (E) z prędkością 4 km/h
WIDZIALNOŚĆ.... powyżej 10 kilometrów
WARUNKI........ niska mgła 
CHMURY......... brak istotnych chmur
TEMPERATURA.... 8°C
T.PUNKTU ROSY.. 7°C
WILGOTNOŚĆ..... 93%
CIŚNIENIE...... 1015 hPa
CIŚN.BEZWZGL... 992 hPa

Sprawdź też: Prognoza pogody Łódź

Wrocław-Strachowice (EPWR)

METAR = EPWR 180130Z VRB02KT 9999 MIFG NSC 07/06 Q1015

STACJA......... EPWR - Wrocław-Strachowice (WRO)
POMIAR......... Fri Oct 18, 03:30 CEST
WIATR.......... zmienny z prędkością 4 km/h
WIDZIALNOŚĆ.... powyżej 10 kilometrów
WARUNKI........ niska mgła 
CHMURY......... brak istotnych chmur
TEMPERATURA.... 7°C
T.PUNKTU ROSY.. 6°C
WILGOTNOŚĆ..... 93%
CIŚNIENIE...... 1015 hPa
CIŚN.BEZWZGL... 1000 hPa

Sprawdź też: Prognoza pogody Wrocław

Katowice-Pyrzowice (EPKT)

METAR = EPKT 180130Z 09003KT 9000 NSC 08/07 Q1016

STACJA......... EPKT - Katowice-Pyrzowice (KTW)
POMIAR......... Fri Oct 18, 03:30 CEST
WIATR.......... wschodni (E) z prędkością 6 km/h
WIDZIALNOŚĆ.... 9000 metrów
CHMURY......... brak istotnych chmur
TEMPERATURA.... 8°C
T.PUNKTU ROSY.. 7°C
WILGOTNOŚĆ..... 93%
T.ODCZUWALNA... 7°C
CIŚNIENIE...... 1016 hPa
CIŚN.BEZWZGL... 979 hPa

Sprawdź też: Prognoza pogody Katowice

Gdańsk (EPGD)

METAR = EPGD 180130Z 19003KT 9999 BKN038 OVC042 12/11 Q1013

STACJA......... EPGD - Gdańsk im. Lecha Wałęsy (GDN)
POMIAR......... Fri Oct 18, 03:30 CEST
WIATR.......... południowy (S) z prędkością 6 km/h
WIDZIALNOŚĆ.... powyżej 10 kilometrów
CHMURY......... zachmurzenie całkowite (8/8)
TEMPERATURA.... 12°C
T.PUNKTU ROSY.. 11°C
WILGOTNOŚĆ..... 94%
CIŚNIENIE...... 1013 hPa
CIŚN.BEZWZGL... 995 hPa

Sprawdź też: Prognoza pogody Gdańsk

Poznań-Ławica (EPPO)

METAR = EPPO 180130Z 13003KT CAVOK 07/07 Q1014

STACJA......... EPPO - Poznań-Ławica (POZ)
POMIAR......... Fri Oct 18, 03:30 CEST
WIATR.......... południowo wschodni (SE) z prędkością 6 km/h
WIDZIALNOŚĆ.... powyżej 10 kilometrów
CHMURY......... bezchmurne niebo
TEMPERATURA.... 7°C
T.PUNKTU ROSY.. 7°C
WILGOTNOŚĆ..... 100%
T.ODCZUWALNA... 7°C
CIŚNIENIE...... 1014 hPa
CIŚN.BEZWZGL... 1002 hPa

Sprawdź też: Prognoza pogody Poznań

Rzeszów-Jasionka (EPRZ)

METAR = EPRZ 180130Z VRB01KT 5000 BR NSC 07/06 Q1017

STACJA......... EPRZ - Rzeszów-Jasionka (RZE)
POMIAR......... Fri Oct 18, 03:30 CEST
WIATR.......... zmienny z prędkością 2 km/h
WIDZIALNOŚĆ.... 5000 metrów
WARUNKI........ zamglenie 
CHMURY......... brak istotnych chmur
TEMPERATURA.... 7°C
T.PUNKTU ROSY.. 6°C
WILGOTNOŚĆ..... 93%
CIŚNIENIE...... 1017 hPa
CIŚN.BEZWZGL... 991 hPa

Sprawdź też: Prognoza pogody Rzeszów

Szczecin-Goleniów (EPSC)

METAR = EPSC 180130Z 12006KT CAVOK 12/11 Q1012

STACJA......... EPSC - Szczecin-Goleniów (SZZ)
POMIAR......... Fri Oct 18, 03:30 CEST
WIATR.......... wschodni południowo-wschodni (ESE) z prędkością 11 km/h
WIDZIALNOŚĆ.... powyżej 10 kilometrów
CHMURY......... bezchmurne niebo
TEMPERATURA.... 12°C
T.PUNKTU ROSY.. 11°C
WILGOTNOŚĆ..... 94%
CIŚNIENIE...... 1012 hPa
CIŚN.BEZWZGL... 1006 hPa

Sprawdź też: Prognoza pogody Szczecin

Lublin-Świdnik (EPLB)

METAR = EPLB 180130Z 07002KT 6000 NSC 05/05 Q1017 =

STACJA......... EPLB - Lublin-Świdnik (LUZ)
POMIAR......... Fri Oct 18, 03:30 CEST
WIATR.......... wschodni północno-wschodni (ENE) z prędkością 4 km/h
WIDZIALNOŚĆ.... 6000 metrów
CHMURY......... brak istotnych chmur
TEMPERATURA.... 5°C
T.PUNKTU ROSY.. 5°C
WILGOTNOŚĆ..... 100%
CIŚNIENIE...... 1017 hPa
CIŚN.BEZWZGL... 992 hPa

Sprawdź też: Prognoza pogody Lublin

Bydgoszcz-Szwederowo (EPBY)

METAR = EPBY 180130Z VRB02KT CAVOK 08/07 Q1014 =

STACJA......... EPBY - Bydgoszcz-Szwederowo (BZG)
POMIAR......... Fri Oct 18, 03:30 CEST
WIATR.......... zmienny z prędkością 4 km/h
WIDZIALNOŚĆ.... powyżej 10 kilometrów
CHMURY......... bezchmurne niebo
TEMPERATURA.... 8°C
T.PUNKTU ROSY.. 7°C
WILGOTNOŚĆ..... 93%
CIŚNIENIE...... 1014 hPa
CIŚN.BEZWZGL... 1005 hPa

Sprawdź też: Prognoza pogody Bydgoszcz

Zielona Góra-Babimost (EPZG)

METAR = EPZG 180130Z NIL=

STACJA......... EPZG - Zielona Góra-Babimost (IEG)
POMIAR......... Fri Oct 18, 03:30 CEST
DEPESZA........ brak aktualnej prognozy w treści depeszy

Sprawdź też: Prognoza pogody Zielona Góra

Szymany Olsztyn-Mazury (EPSY)

METAR = EPSY 180130Z NIL=

STACJA......... EPSY - Olsztyn-Mazury (SZY)
POMIAR......... Fri Oct 18, 03:30 CEST
DEPESZA........ brak aktualnej prognozy w treści depeszy

Sprawdź też: Prognoza pogody Olsztyn